Minturn, Colorado
Current Conditions -  °F | °C
As of 3:37 PM on Wednesday 22 Oct 2014 (Local Time) from KCCU Reporting Station
Broken Clouds Broken Clouds  
Wind Chill: 31°   Ceiling: 3400
Heat Index: 37°   Visibility: 10mi
Dew Point: 28°   Wind: 8mph
Humidity: 70%   Direction: 230°SW
Pressure: 30.4"   Gusts: 18mph
Location:  39.59°N, 106.43°W
Report Text: KCCU 222137Z AUTO 23007G16KT 10SM SCT027 BKN034 BKN041 03/M02 A3040 RMK AO2
Loading
Personal Weather Stations






























Interactive Weather Map
Tropical Storm Tracking
New forecast layout! Learn more

10-Day Weather Forecast

Advertisements
Track Severe Weather on mobile